createdAt,value
2022-12-08T00:01:40.528Z,3.40
2022-12-08T00:04:09.566Z,3.40
2022-12-08T00:06:56.581Z,3.40
2022-12-08T00:09:32.011Z,3.50
2022-12-08T00:12:06.444Z,3.50
2022-12-08T00:14:36.942Z,3.50
2022-12-08T00:17:06.574Z,3.50
2022-12-08T00:19:35.199Z,3.50
2022-12-08T00:22:03.645Z,3.50
2022-12-08T00:24:34.752Z,3.50
2022-12-08T00:27:04.532Z,3.40
2022-12-08T00:29:32.565Z,3.60
2022-12-08T00:32:00.599Z,3.50
2022-12-08T00:34:29.012Z,3.50
2022-12-08T00:36:57.025Z,3.50
2022-12-08T00:39:25.739Z,3.50
2022-12-08T00:42:11.284Z,3.50
2022-12-08T00:44:41.522Z,3.50
2022-12-08T00:47:09.538Z,3.60
2022-12-08T00:49:37.587Z,3.50
2022-12-08T00:52:06.257Z,3.60
2022-12-08T00:54:34.494Z,3.50
2022-12-08T00:57:02.510Z,3.50
2022-12-08T00:59:30.551Z,3.50
2022-12-08T01:02:00.267Z,3.50
2022-12-08T01:04:28.305Z,3.50
2022-12-08T01:06:56.718Z,3.50
2022-12-08T01:09:24.728Z,3.50
2022-12-08T01:11:53.019Z,3.50
2022-12-08T01:14:21.097Z,3.40
2022-12-08T01:16:49.264Z,3.30
2022-12-08T01:19:19.177Z,3.30
2022-12-08T01:21:47.690Z,3.40
2022-12-08T01:24:17.340Z,3.30
2022-12-08T01:26:45.629Z,3.20
2022-12-08T01:29:14.432Z,3.30
2022-12-08T01:31:42.610Z,3.20
2022-12-08T01:34:12.842Z,3.30
2022-12-08T01:36:44.521Z,3.30
2022-12-08T01:39:16.171Z,3.30
2022-12-08T01:41:45.728Z,3.30
2022-12-08T01:44:53.608Z,3.40
2022-12-08T01:47:23.398Z,3.40
2022-12-08T01:49:51.475Z,3.40
2022-12-08T01:52:27.493Z,3.40
2022-12-08T01:54:59.577Z,3.50
2022-12-08T01:57:31.124Z,3.50
2022-12-08T02:00:04.522Z,3.40
2022-12-08T02:02:40.832Z,3.50
2022-12-08T02:05:10.343Z,3.50
2022-12-08T02:07:39.997Z,3.50
2022-12-08T02:10:09.223Z,3.50
2022-12-08T02:12:37.236Z,3.60
2022-12-08T02:15:06.310Z,3.60
2022-12-08T02:17:50.347Z,3.60
2022-12-08T02:20:43.558Z,3.60
2022-12-08T02:23:25.238Z,3.60
2022-12-08T02:26:36.926Z,3.60
2022-12-08T02:29:46.790Z,3.70
2022-12-08T02:32:35.104Z,3.70
2022-12-08T02:35:12.289Z,3.60
2022-12-08T02:37:47.054Z,3.60
2022-12-08T02:40:20.828Z,3.60
2022-12-08T02:42:56.147Z,3.70
2022-12-08T02:45:29.621Z,3.60
2022-12-08T02:47:59.792Z,3.60
2022-12-08T02:50:31.021Z,3.60
2022-12-08T02:52:59.184Z,3.70
2022-12-08T02:55:29.264Z,3.70
2022-12-08T02:58:43.900Z,3.70
2022-12-08T03:01:31.597Z,3.60
2022-12-08T03:04:07.378Z,3.70
2022-12-08T03:06:47.357Z,3.60
2022-12-08T03:09:20.780Z,3.70
2022-12-08T03:11:54.318Z,3.70
2022-12-08T03:14:23.797Z,3.70
2022-12-08T03:16:57.438Z,3.60
2022-12-08T03:19:29.024Z,3.60
2022-12-08T03:22:03.140Z,3.60
2022-12-08T03:24:33.972Z,3.60
2022-12-08T03:27:05.811Z,3.60
2022-12-08T03:29:34.554Z,3.60
2022-12-08T03:32:09.374Z,3.60
2022-12-08T03:34:37.913Z,3.70
2022-12-08T03:37:08.096Z,3.70
2022-12-08T03:39:36.102Z,3.70
2022-12-08T03:42:04.191Z,3.70
2022-12-08T03:44:32.360Z,3.60
2022-12-08T03:47:00.674Z,3.70
2022-12-08T03:49:28.713Z,3.70
2022-12-08T03:51:56.772Z,3.60
2022-12-08T03:54:26.183Z,3.60
2022-12-08T03:56:54.572Z,3.70
2022-12-08T03:59:22.572Z,3.60
2022-12-08T04:01:51.073Z,3.50
2022-12-08T04:04:19.135Z,3.60
2022-12-08T04:06:47.678Z,3.60
2022-12-08T04:09:15.790Z,3.60
2022-12-08T04:11:45.648Z,3.70
2022-12-08T04:14:13.786Z,3.60
2022-12-08T04:16:41.951Z,3.70
2022-12-08T04:19:10.098Z,3.60
2022-12-08T04:21:38.186Z,3.60
2022-12-08T04:24:06.653Z,3.60
2022-12-08T04:26:34.652Z,3.60
2022-12-08T04:29:04.372Z,3.60
2022-12-08T04:31:32.482Z,3.50
2022-12-08T04:34:00.642Z,3.50
2022-12-08T04:36:28.956Z,3.30
2022-12-08T04:38:56.994Z,3.40
2022-12-08T04:41:25.037Z,3.40
2022-12-08T04:43:53.034Z,3.50
2022-12-08T04:46:22.438Z,3.30
2022-12-08T04:48:50.559Z,3.40
2022-12-08T04:51:20.033Z,3.40
2022-12-08T04:53:48.921Z,3.40
2022-12-08T04:56:18.372Z,3.40
2022-12-08T04:58:47.005Z,3.40
2022-12-08T05:01:15.436Z,3.40
2022-12-08T05:03:45.180Z,3.30
2022-12-08T05:06:15.227Z,3.20
2022-12-08T05:08:44.212Z,3.30
2022-12-08T05:11:14.123Z,3.20
2022-12-08T05:13:42.564Z,3.20
2022-12-08T05:16:13.405Z,3.20
2022-12-08T05:18:42.353Z,3.20
2022-12-08T05:21:12.583Z,3.20
2022-12-08T05:23:40.969Z,3.20
2022-12-08T05:26:09.566Z,3.20
2022-12-08T05:28:42.255Z,3.30
2022-12-08T05:31:11.036Z,3.20
2022-12-08T05:33:39.122Z,3.20
2022-12-08T05:36:08.280Z,3.20
2022-12-08T05:38:37.633Z,3.20
2022-12-08T05:41:06.909Z,3.20
2022-12-08T05:43:35.106Z,3.30
2022-12-08T05:46:03.827Z,3.20
2022-12-08T05:48:31.994Z,3.30
2022-12-08T05:51:00.042Z,3.20
2022-12-08T05:53:28.892Z,3.20
2022-12-08T05:55:58.676Z,3.30
2022-12-08T05:58:29.928Z,3.30
2022-12-08T06:00:57.991Z,3.40
2022-12-08T06:03:26.092Z,3.40
2022-12-08T06:05:54.166Z,3.30
2022-12-08T06:08:22.307Z,3.40
2022-12-08T06:10:50.790Z,3.30
2022-12-08T06:13:20.187Z,3.40
2022-12-08T06:15:48.628Z,3.30
2022-12-08T06:18:16.627Z,3.40
2022-12-08T06:20:44.936Z,3.40
2022-12-08T06:23:13.150Z,3.40
2022-12-08T06:25:41.464Z,3.40
2022-12-08T06:28:09.444Z,3.40
2022-12-08T06:30:39.095Z,3.40
2022-12-08T06:33:07.501Z,3.30
2022-12-08T06:35:35.562Z,3.30
2022-12-08T06:38:03.577Z,3.30
2022-12-08T06:40:31.635Z,3.30
2022-12-08T06:42:59.738Z,3.40
2022-12-08T06:45:28.054Z,3.40
2022-12-08T06:47:57.420Z,3.40
2022-12-08T06:50:25.545Z,3.40
2022-12-08T06:53:03.093Z,3.40
2022-12-08T06:58:22.512Z,3.40
2022-12-08T07:00:50.549Z,3.50
2022-12-08T07:03:20.127Z,3.40
2022-12-08T07:05:48.405Z,3.50
2022-12-08T07:08:16.577Z,3.50
2022-12-08T07:10:44.602Z,3.50
2022-12-08T07:13:13.109Z,3.50
2022-12-08T07:15:41.092Z,3.60
2022-12-08T07:18:09.164Z,3.60
2022-12-08T07:20:38.794Z,3.50
2022-12-08T07:23:06.952Z,3.50
2022-12-08T07:25:35.526Z,3.50
2022-12-08T07:28:09.373Z,3.60
2022-12-08T07:30:37.810Z,3.60
2022-12-08T07:33:06.630Z,3.60
2022-12-08T07:35:35.435Z,3.60
2022-12-08T07:38:04.978Z,3.60
2022-12-08T07:40:32.960Z,3.60
2022-12-08T07:43:01.007Z,3.60
2022-12-08T07:45:31.721Z,3.60
2022-12-08T07:48:00.299Z,3.70
2022-12-08T07:50:28.305Z,3.70
2022-12-08T07:52:56.344Z,3.70
2022-12-08T07:55:25.812Z,3.70
2022-12-08T07:57:54.204Z,3.70
2022-12-08T08:00:22.783Z,3.80
2022-12-08T08:02:50.970Z,3.70
2022-12-08T08:05:19.784Z,3.70
2022-12-08T08:07:48.354Z,3.70
2022-12-08T08:10:16.525Z,3.70
2022-12-08T08:12:45.888Z,3.80
2022-12-08T08:15:14.253Z,3.70
2022-12-08T08:17:42.338Z,3.70
2022-12-08T08:20:11.534Z,3.70
2022-12-08T08:22:39.563Z,3.80
2022-12-08T08:25:08.569Z,3.70
2022-12-08T08:27:36.642Z,3.80
2022-12-08T08:30:07.914Z,3.70
2022-12-08T08:32:36.959Z,3.70
2022-12-08T08:35:05.598Z,3.80
2022-12-08T08:37:33.675Z,3.70
2022-12-08T08:40:02.118Z,3.70
2022-12-08T08:42:30.306Z,3.60
2022-12-08T08:44:58.280Z,3.70
2022-12-08T08:47:27.712Z,3.60
2022-12-08T08:49:55.724Z,3.60
2022-12-08T08:52:24.098Z,3.60
2022-12-08T08:54:52.133Z,3.70
2022-12-08T08:57:25.272Z,3.60
2022-12-08T08:59:54.199Z,3.70
2022-12-08T09:02:22.337Z,3.70
2022-12-08T09:04:52.509Z,3.60
2022-12-08T09:07:20.569Z,3.60
2022-12-08T09:09:48.723Z,3.50
2022-12-08T09:12:16.760Z,3.60
2022-12-08T09:14:45.876Z,3.30
2022-12-08T09:17:14.255Z,3.20
2022-12-08T09:19:42.677Z,3.30
2022-12-08T09:22:12.024Z,3.10
2022-12-08T09:24:40.292Z,3.20
2022-12-08T09:30:56.638Z,3.30
2022-12-08T09:33:24.766Z,3.40
2022-12-08T09:35:52.786Z,3.30
2022-12-08T09:38:22.366Z,3.40
2022-12-08T09:40:53.571Z,3.40
2022-12-08T09:43:37.261Z,3.50
2022-12-08T09:46:08.545Z,3.40
2022-12-08T09:48:41.022Z,3.40
2022-12-08T09:51:10.836Z,3.50
2022-12-08T09:53:46.300Z,3.40
2022-12-08T09:56:17.878Z,3.40
2022-12-08T09:58:52.753Z,3.50
2022-12-08T10:01:22.108Z,3.60
2022-12-08T10:03:50.868Z,3.50
2022-12-08T10:06:23.040Z,3.60
2022-12-08T10:09:03.279Z,3.60
2022-12-08T10:11:38.269Z,3.60
2022-12-08T10:14:17.810Z,3.70
2022-12-08T10:16:49.594Z,3.80
2022-12-08T10:19:22.414Z,3.80
2022-12-08T10:21:51.323Z,3.90
2022-12-08T10:24:33.636Z,3.80
2022-12-08T10:27:02.494Z,3.80
2022-12-08T10:29:30.625Z,3.80
2022-12-08T10:32:00.823Z,3.80
2022-12-08T10:34:28.954Z,3.80
2022-12-08T10:36:58.878Z,3.80
2022-12-08T10:39:37.328Z,3.90
2022-12-08T10:42:11.201Z,3.90
2022-12-08T10:44:55.969Z,3.90
2022-12-08T10:47:26.567Z,4.00
2022-12-08T10:50:25.506Z,3.90
2022-12-08T10:52:58.105Z,4.10
2022-12-08T10:55:28.036Z,4.20
2022-12-08T10:57:59.965Z,4.10
2022-12-08T11:00:30.841Z,4.10
2022-12-08T11:03:01.573Z,4.10
2022-12-08T11:05:34.468Z,4.20
2022-12-08T11:08:03.285Z,4.10
2022-12-08T11:10:43.503Z,4.20
2022-12-08T11:13:20.811Z,4.20
2022-12-08T11:15:49.195Z,4.30
2022-12-08T11:18:27.299Z,4.20
2022-12-08T11:21:01.235Z,4.20
2022-12-08T11:23:31.210Z,4.30
2022-12-08T11:26:07.410Z,4.30
2022-12-08T11:28:35.696Z,4.50
2022-12-08T11:31:10.530Z,4.40
2022-12-08T11:33:38.587Z,4.40
2022-12-08T11:36:12.549Z,4.40
2022-12-08T11:38:43.297Z,4.40
2022-12-08T11:41:16.615Z,4.50
2022-12-08T11:43:51.506Z,4.40
2022-12-08T11:46:24.898Z,4.60
2022-12-08T11:49:05.656Z,4.50
2022-12-08T11:51:38.479Z,4.60
2022-12-08T11:56:44.075Z,4.50
2022-12-08T11:59:20.874Z,4.60
2022-12-08T12:01:49.125Z,4.50
2022-12-08T12:04:27.594Z,4.60
2022-12-08T12:07:31.306Z,4.50
2022-12-08T12:10:24.646Z,4.60
2022-12-08T12:13:09.697Z,4.50
2022-12-08T12:16:11.084Z,4.60
2022-12-08T12:18:46.634Z,4.60
2022-12-08T12:21:18.480Z,4.50
2022-12-08T12:23:51.503Z,4.60
2022-12-08T12:26:21.785Z,4.60
2022-12-08T12:28:54.573Z,4.60
2022-12-08T12:31:27.038Z,4.60
2022-12-08T12:34:04.367Z,4.50
2022-12-08T12:36:33.253Z,4.60
2022-12-08T12:39:04.136Z,4.60
2022-12-08T12:41:37.968Z,4.60
2022-12-08T12:44:37.130Z,4.60
2022-12-08T12:47:08.530Z,4.50
2022-12-08T12:50:08.709Z,4.60
2022-12-08T12:52:50.340Z,4.60
2022-12-08T12:55:51.577Z,4.60
2022-12-08T12:58:35.548Z,4.60
2022-12-08T13:01:47.636Z,4.50
2022-12-08T13:04:16.319Z,4.70
2022-12-08T13:06:47.889Z,4.60
2022-12-08T13:09:28.474Z,4.60
2022-12-08T13:12:00.628Z,4.60
2022-12-08T13:14:34.653Z,4.60
2022-12-08T13:17:09.297Z,4.50
2022-12-08T13:19:39.557Z,4.50
2022-12-08T13:22:41.564Z,4.70
2022-12-08T13:26:00.562Z,4.70
2022-12-08T13:28:30.653Z,4.70
2022-12-08T13:31:00.312Z,4.60
2022-12-08T13:33:34.806Z,4.50
2022-12-08T13:36:15.646Z,4.40
2022-12-08T13:38:46.668Z,4.50
2022-12-08T13:41:20.265Z,4.50
2022-12-08T13:44:20.537Z,4.50
2022-12-08T13:54:10.007Z,4.60
2022-12-08T13:58:19.777Z,4.30
2022-12-08T14:01:07.669Z,4.60
2022-12-08T14:04:04.616Z,4.40
2022-12-08T14:06:40.444Z,4.40
2022-12-08T14:09:12.898Z,4.50
2022-12-08T14:11:44.906Z,4.60
2022-12-08T14:14:32.819Z,4.60
2022-12-08T14:17:07.741Z,4.60
2022-12-08T14:19:36.584Z,4.30
2022-12-08T14:22:13.445Z,4.30
2022-12-08T14:24:45.291Z,4.40
2022-12-08T14:27:18.380Z,4.40
2022-12-08T14:29:48.598Z,4.50
2022-12-08T14:32:26.408Z,4.40
2022-12-08T14:34:56.711Z,4.40
2022-12-08T14:37:27.990Z,4.50
2022-12-08T14:40:02.039Z,4.50
2022-12-08T14:42:30.773Z,4.40
2022-12-08T14:45:02.215Z,4.40
2022-12-08T14:47:32.219Z,4.30
2022-12-08T14:50:01.025Z,4.30
2022-12-08T14:52:31.305Z,4.30
2022-12-08T14:54:59.983Z,4.30
2022-12-08T14:57:36.397Z,4.30
2022-12-08T15:00:12.383Z,4.20
2022-12-08T15:02:47.479Z,4.20
2022-12-08T15:05:18.933Z,4.10
2022-12-08T15:07:50.838Z,4.10
2022-12-08T15:10:28.659Z,4.10
2022-12-08T15:13:06.033Z,4.10
2022-12-08T15:15:47.752Z,4.10
2022-12-08T15:18:18.689Z,4.00
2022-12-08T15:20:49.859Z,4.00
2022-12-08T15:23:28.459Z,3.90
2022-12-08T15:25:57.398Z,3.90
2022-12-08T15:28:30.106Z,3.80
2022-12-08T15:30:59.598Z,3.80
2022-12-08T15:33:28.199Z,3.80
2022-12-08T15:35:56.250Z,3.80
2022-12-08T15:38:27.099Z,3.80
2022-12-08T15:40:56.042Z,3.80
2022-12-08T15:43:24.460Z,3.70
2022-12-08T15:46:01.153Z,3.70
2022-12-08T15:48:30.655Z,3.70
2022-12-08T15:50:58.918Z,3.60
2022-12-08T15:53:28.329Z,3.70
2022-12-08T15:58:53.709Z,3.60
2022-12-08T16:01:23.098Z,3.60
2022-12-08T16:09:33.734Z,3.60
2022-12-08T16:12:19.686Z,3.50
2022-12-08T16:15:47.369Z,3.40
2022-12-08T16:17:37.495Z,3.30
2022-12-08T16:20:08.416Z,3.30
2022-12-08T16:22:56.892Z,3.30
2022-12-08T16:25:36.427Z,3.30
2022-12-08T16:28:53.347Z,3.30
2022-12-08T16:31:02.823Z,3.20
2022-12-08T16:33:30.873Z,3.20
2022-12-08T16:35:59.009Z,3.30
2022-12-08T16:38:27.081Z,3.40
2022-12-08T16:41:14.137Z,3.50
2022-12-08T16:43:42.550Z,3.50
2022-12-08T16:46:20.607Z,3.40
2022-12-08T16:48:49.035Z,3.20
2022-12-08T16:51:22.027Z,3.10
2022-12-08T16:53:53.467Z,3.10
2022-12-08T16:56:28.991Z,3.00
2022-12-08T16:59:01.240Z,2.90
2022-12-08T17:01:29.757Z,3.00
2022-12-08T17:06:45.882Z,2.90
2022-12-08T17:09:14.338Z,2.90
2022-12-08T17:11:44.115Z,2.80
2022-12-08T17:14:12.612Z,2.90
2022-12-08T17:16:41.170Z,2.90
2022-12-08T17:19:09.484Z,2.90
2022-12-08T17:21:37.667Z,3.00
2022-12-08T17:24:05.973Z,3.00
2022-12-08T17:26:34.508Z,2.90
2022-12-08T17:29:04.680Z,2.80
2022-12-08T17:31:34.020Z,2.70
2022-12-08T17:34:02.620Z,2.60
2022-12-08T17:36:30.750Z,2.70
2022-12-08T17:39:00.437Z,2.80
2022-12-08T17:41:29.349Z,2.60
2022-12-08T17:43:57.736Z,2.40
2022-12-08T17:46:27.445Z,2.20
2022-12-08T17:48:55.544Z,2.00
2022-12-08T17:51:23.711Z,2.10
2022-12-08T17:53:51.814Z,2.30
2022-12-08T17:56:22.334Z,2.30
2022-12-08T17:58:54.546Z,2.30
2022-12-08T18:01:23.868Z,2.40
2022-12-08T18:03:53.498Z,2.30
2022-12-08T18:06:24.656Z,2.20
2022-12-08T18:08:59.969Z,2.20
2022-12-08T18:11:31.033Z,2.10
2022-12-08T18:13:59.249Z,2.10
2022-12-08T18:16:28.834Z,2.00
2022-12-08T18:18:58.254Z,2.10
2022-12-08T18:21:26.390Z,2.00
2022-12-08T18:23:55.030Z,1.90
2022-12-08T18:26:24.430Z,1.90
2022-12-08T18:28:52.486Z,1.90
2022-12-08T18:31:22.822Z,2.00
2022-12-08T18:33:51.908Z,1.70
2022-12-08T18:36:25.851Z,1.60
2022-12-08T18:38:54.400Z,1.60
2022-12-08T18:41:24.650Z,1.60
2022-12-08T18:43:53.138Z,1.60
2022-12-08T18:46:21.389Z,1.70
2022-12-08T18:48:51.407Z,1.50
2022-12-08T18:51:22.816Z,1.50
2022-12-08T18:53:51.592Z,1.50
2022-12-08T18:56:23.455Z,1.20
2022-12-08T18:58:51.591Z,1.30
2022-12-08T19:01:20.085Z,1.30
2022-12-08T19:04:12.066Z,1.30
2022-12-08T19:06:40.534Z,1.50
2022-12-08T19:09:09.143Z,1.50
2022-12-08T19:11:37.562Z,1.60
2022-12-08T19:14:05.868Z,1.60
2022-12-08T19:16:34.394Z,1.60
2022-12-08T19:19:02.833Z,1.60
2022-12-08T19:21:31.371Z,1.20
2022-12-08T19:24:01.165Z,1.20
2022-12-08T19:26:29.871Z,1.40
2022-12-08T19:28:59.269Z,1.50
2022-12-08T19:31:27.529Z,1.50
2022-12-08T19:33:55.940Z,1.50
2022-12-08T19:36:24.936Z,1.50
2022-12-08T19:39:10.629Z,1.60
2022-12-08T19:41:57.784Z,1.50
2022-12-08T19:44:45.718Z,1.60
2022-12-08T19:47:14.195Z,1.50
2022-12-08T19:49:42.372Z,1.50
2022-12-08T19:52:10.655Z,1.60
2022-12-08T19:54:38.914Z,1.40
2022-12-08T19:57:09.163Z,1.40
2022-12-08T19:59:37.225Z,1.20
2022-12-08T20:02:05.912Z,1.10
2022-12-08T20:04:34.285Z,1.20
2022-12-08T20:07:02.445Z,1.20
2022-12-08T20:09:30.554Z,1.20
2022-12-08T20:11:59.611Z,1.50
2022-12-08T20:14:29.021Z,1.50
2022-12-08T20:16:57.149Z,1.50
2022-12-08T20:19:25.197Z,1.40
2022-12-08T20:21:53.336Z,1.30
2022-12-08T20:24:21.813Z,1.20
2022-12-08T20:26:49.906Z,1.10
2022-12-08T20:29:18.838Z,0.90
2022-12-08T20:31:48.397Z,1.10
2022-12-08T20:34:16.975Z,1.30
2022-12-08T20:36:45.602Z,1.40
2022-12-08T20:39:14.749Z,1.30
2022-12-08T20:41:43.615Z,1.10
2022-12-08T20:44:12.072Z,1.20
2022-12-08T20:46:42.775Z,1.00
2022-12-08T20:49:14.581Z,0.80
2022-12-08T20:51:44.447Z,0.80
2022-12-08T20:54:12.822Z,0.70
2022-12-08T20:56:47.899Z,0.70
2022-12-08T20:59:18.274Z,0.90
2022-12-08T21:01:46.533Z,1.00
2022-12-08T21:04:16.756Z,1.00
2022-12-08T21:06:45.172Z,1.00
2022-12-08T21:09:13.392Z,1.10
2022-12-08T21:11:41.549Z,1.00
2022-12-08T21:14:09.672Z,1.00
2022-12-08T21:16:37.953Z,0.90
2022-12-08T21:19:06.701Z,0.80
2022-12-08T21:21:36.496Z,0.90
2022-12-08T21:24:04.889Z,0.80
2022-12-08T21:26:33.162Z,0.80
2022-12-08T21:29:01.228Z,0.70
2022-12-08T21:31:31.911Z,0.60
2022-12-08T21:34:00.265Z,0.50
2022-12-08T21:36:28.659Z,0.50
2022-12-08T21:39:01.129Z,0.40
2022-12-08T21:41:47.357Z,0.30
2022-12-08T21:44:18.696Z,0.60
2022-12-08T21:46:47.453Z,0.70
2022-12-08T21:49:15.758Z,0.70
2022-12-08T21:51:44.092Z,0.80
2022-12-08T21:54:18.652Z,0.60
2022-12-08T21:56:48.006Z,0.50
2022-12-08T21:59:16.387Z,0.60
2022-12-08T22:01:44.853Z,0.70
2022-12-08T22:04:17.374Z,0.80
2022-12-08T22:06:45.592Z,0.80
2022-12-08T22:09:15.304Z,0.70
2022-12-08T22:11:44.137Z,0.60
2022-12-08T22:14:14.818Z,0.60
2022-12-08T22:16:44.091Z,0.50
2022-12-08T22:19:12.693Z,0.30
2022-12-08T22:21:41.098Z,0.50
2022-12-08T22:24:09.794Z,0.50
2022-12-08T22:26:39.754Z,0.40
2022-12-08T22:29:08.076Z,0.40
2022-12-08T22:31:37.138Z,0.30
2022-12-08T22:34:05.338Z,0.30
2022-12-08T22:36:33.412Z,0.40
2022-12-08T22:39:03.654Z,0.50
2022-12-08T22:41:31.735Z,0.50
2022-12-08T22:44:01.342Z,0.50
2022-12-08T22:46:29.409Z,0.30
2022-12-08T22:48:57.471Z,0.40
2022-12-08T22:51:25.622Z,0.40
2022-12-08T22:53:53.875Z,0.30
2022-12-08T22:56:22.198Z,0.10
2022-12-08T22:58:51.215Z,0.20
2022-12-08T23:01:29.044Z,0.20
2022-12-08T23:03:58.211Z,0.10
2022-12-08T23:06:27.968Z,0.00
2022-12-08T23:08:56.600Z,0.10
2022-12-08T23:11:27.179Z,0.20
2022-12-08T23:13:56.411Z,0.20
2022-12-08T23:16:25.873Z,0.20
2022-12-08T23:18:54.239Z,0.10
2022-12-08T23:21:22.937Z,0.10
2022-12-08T23:23:51.437Z,0.10
2022-12-08T23:26:22.912Z,0.10
2022-12-08T23:28:51.200Z,0.10
2022-12-08T23:31:19.854Z,-0.10
2022-12-08T23:33:49.879Z,0.00
2022-12-08T23:36:19.481Z,-0.10
2022-12-08T23:38:48.061Z,-0.10
2022-12-08T23:41:17.366Z,-0.20
2022-12-08T23:43:47.306Z,-0.20
2022-12-08T23:46:17.021Z,-0.10
2022-12-08T23:48:45.987Z,-0.10
2022-12-08T23:51:15.971Z,-0.10
2022-12-08T23:53:44.523Z,-0.10
2022-12-08T23:56:14.564Z,-0.20
2022-12-08T23:58:43.243Z,-0.20
